sensor_id;sensor_type;location;lat;lon;timestamp;P1;durP1;ratioP1;P2;durP2;ratioP2
8281;SDS011;25606;42.686;23.136;2023-07-29T00:01:22;2.43;;;2.00;;
8281;SDS011;25606;42.686;23.136;2023-07-29T00:03:49;2.37;;;2.17;;
8281;SDS011;25606;42.686;23.136;2023-07-29T00:06:17;2.50;;;2.30;;
8281;SDS011;25606;42.686;23.136;2023-07-29T00:08:45;3.10;;;2.13;;
8281;SDS011;25606;42.686;23.136;2023-07-29T00:11:13;2.57;;;2.30;;
8281;SDS011;25606;42.686;23.136;2023-07-29T00:13:40;2.43;;;2.23;;
8281;SDS011;25606;42.686;23.136;2023-07-29T00:16:07;30.60;;;4.30;;
8281;SDS011;25606;42.686;23.136;2023-07-29T00:18:34;7.10;;;2.40;;
8281;SDS011;25606;42.686;23.136;2023-07-29T00:21:02;3.10;;;2.13;;
8281;SDS011;25606;42.686;23.136;2023-07-29T00:23:29;2.60;;;2.40;;
8281;SDS011;25606;42.686;23.136;2023-07-29T00:25:58;3.10;;;2.23;;
8281;SDS011;25606;42.686;23.136;2023-07-29T00:28:25;2.33;;;2.13;;
8281;SDS011;25606;42.686;23.136;2023-07-29T00:30:52;2.40;;;2.20;;
8281;SDS011;25606;42.686;23.136;2023-07-29T00:33:20;2.70;;;2.50;;
8281;SDS011;25606;42.686;23.136;2023-07-29T00:35:48;2.40;;;2.20;;
8281;SDS011;25606;42.686;23.136;2023-07-29T00:38:15;3.00;;;2.30;;
8281;SDS011;25606;42.686;23.136;2023-07-29T00:40:42;2.87;;;2.17;;
8281;SDS011;25606;42.686;23.136;2023-07-29T00:43:11;2.37;;;2.27;;
8281;SDS011;25606;42.686;23.136;2023-07-29T00:45:38;2.40;;;2.20;;
8281;SDS011;25606;42.686;23.136;2023-07-29T00:48:06;2.43;;;2.20;;
8281;SDS011;25606;42.686;23.136;2023-07-29T00:50:33;2.93;;;2.43;;
8281;SDS011;25606;42.686;23.136;2023-07-29T00:53:01;2.60;;;2.40;;
8281;SDS011;25606;42.686;23.136;2023-07-29T00:55:28;2.53;;;2.30;;
8281;SDS011;25606;42.686;23.136;2023-07-29T00:57:56;2.83;;;2.40;;
8281;SDS011;25606;42.686;23.136;2023-07-29T01:00:25;4.07;;;2.53;;
8281;SDS011;25606;42.686;23.136;2023-07-29T01:02:52;2.90;;;2.57;;
8281;SDS011;25606;42.686;23.136;2023-07-29T01:05:20;2.40;;;2.30;;
8281;SDS011;25606;42.686;23.136;2023-07-29T01:07:49;2.60;;;2.40;;
8281;SDS011;25606;42.686;23.136;2023-07-29T01:10:20;3.07;;;2.50;;
8281;SDS011;25606;42.686;23.136;2023-07-29T01:12:51;2.90;;;2.40;;
8281;SDS011;25606;42.686;23.136;2023-07-29T01:15:22;3.37;;;2.80;;
8281;SDS011;25606;42.686;23.136;2023-07-29T01:17:52;2.37;;;2.17;;
8281;SDS011;25606;42.686;23.136;2023-07-29T01:20:21;2.43;;;2.23;;
8281;SDS011;25606;42.686;23.136;2023-07-29T01:22:51;3.87;;;2.30;;
8281;SDS011;25606;42.686;23.136;2023-07-29T01:25:19;5.10;;;2.70;;
8281;SDS011;25606;42.686;23.136;2023-07-29T01:27:48;2.67;;;2.40;;
8281;SDS011;25606;42.686;23.136;2023-07-29T01:30:16;3.40;;;2.63;;
8281;SDS011;25606;42.686;23.136;2023-07-29T01:32:46;2.60;;;2.33;;
8281;SDS011;25606;42.686;23.136;2023-07-29T01:35:18;2.30;;;2.17;;
8281;SDS011;25606;42.686;23.136;2023-07-29T01:37:49;2.83;;;2.37;;
8281;SDS011;25606;42.686;23.136;2023-07-29T01:40:19;2.67;;;2.47;;
8281;SDS011;25606;42.686;23.136;2023-07-29T01:42:48;2.90;;;2.70;;
8281;SDS011;25606;42.686;23.136;2023-07-29T01:45:15;2.70;;;2.33;;
8281;SDS011;25606;42.686;23.136;2023-07-29T01:47:42;2.77;;;2.57;;
8281;SDS011;25606;42.686;23.136;2023-07-29T01:50:10;3.53;;;2.70;;
8281;SDS011;25606;42.686;23.136;2023-07-29T01:52:37;2.63;;;2.43;;
8281;SDS011;25606;42.686;23.136;2023-07-29T01:55:05;2.60;;;2.40;;
8281;SDS011;25606;42.686;23.136;2023-07-29T01:57:33;2.77;;;2.50;;
8281;SDS011;25606;42.686;23.136;2023-07-29T02:00:01;3.17;;;2.40;;
8281;SDS011;25606;42.686;23.136;2023-07-29T02:02:29;3.53;;;2.40;;
8281;SDS011;25606;42.686;23.136;2023-07-29T02:04:56;2.77;;;2.57;;
8281;SDS011;25606;42.686;23.136;2023-07-29T02:07:23;2.40;;;2.20;;
8281;SDS011;25606;42.686;23.136;2023-07-29T02:09:51;4.67;;;2.40;;
8281;SDS011;25606;42.686;23.136;2023-07-29T02:12:19;3.27;;;2.60;;
8281;SDS011;25606;42.686;23.136;2023-07-29T02:14:48;3.20;;;2.47;;
8281;SDS011;25606;42.686;23.136;2023-07-29T02:17:15;2.87;;;2.30;;
8281;SDS011;25606;42.686;23.136;2023-07-29T02:19:43;4.83;;;2.40;;
8281;SDS011;25606;42.686;23.136;2023-07-29T02:22:10;3.87;;;2.17;;
8281;SDS011;25606;42.686;23.136;2023-07-29T02:24:37;2.67;;;2.40;;
8281;SDS011;25606;42.686;23.136;2023-07-29T02:27:05;2.33;;;2.13;;
8281;SDS011;25606;42.686;23.136;2023-07-29T02:29:32;2.47;;;2.27;;
8281;SDS011;25606;42.686;23.136;2023-07-29T02:32:01;2.33;;;2.23;;
8281;SDS011;25606;42.686;23.136;2023-07-29T02:34:28;2.90;;;2.60;;
8281;SDS011;25606;42.686;23.136;2023-07-29T02:36:56;2.60;;;2.40;;
8281;SDS011;25606;42.686;23.136;2023-07-29T02:39:23;2.63;;;2.43;;
8281;SDS011;25606;42.686;23.136;2023-07-29T02:41:50;3.60;;;2.33;;
8281;SDS011;25606;42.686;23.136;2023-07-29T02:44:18;2.60;;;2.40;;
8281;SDS011;25606;42.686;23.136;2023-07-29T02:46:45;3.13;;;2.40;;
8281;SDS011;25606;42.686;23.136;2023-07-29T02:49:14;2.77;;;2.40;;
8281;SDS011;25606;42.686;23.136;2023-07-29T02:51:42;3.53;;;2.80;;
8281;SDS011;25606;42.686;23.136;2023-07-29T02:54:09;2.77;;;2.57;;
8281;SDS011;25606;42.686;23.136;2023-07-29T02:56:36;3.07;;;2.83;;
8281;SDS011;25606;42.686;23.136;2023-07-29T02:59:04;3.10;;;2.80;;
8281;SDS011;25606;42.686;23.136;2023-07-29T03:01:31;2.90;;;2.70;;
8281;SDS011;25606;42.686;23.136;2023-07-29T03:03:58;4.77;;;2.70;;
8281;SDS011;25606;42.686;23.136;2023-07-29T03:06:27;3.00;;;2.67;;
8281;SDS011;25606;42.686;23.136;2023-07-29T03:08:54;2.90;;;2.70;;
8281;SDS011;25606;42.686;23.136;2023-07-29T03:11:22;3.83;;;2.80;;
8281;SDS011;25606;42.686;23.136;2023-07-29T03:13:49;2.77;;;2.57;;
8281;SDS011;25606;42.686;23.136;2023-07-29T03:16:17;3.37;;;2.63;;
8281;SDS011;25606;42.686;23.136;2023-07-29T03:18:44;3.20;;;2.30;;
8281;SDS011;25606;42.686;23.136;2023-07-29T03:21:12;4.03;;;3.20;;
8281;SDS011;25606;42.686;23.136;2023-07-29T03:23:40;3.20;;;2.90;;
8281;SDS011;25606;42.686;23.136;2023-07-29T03:26:08;2.70;;;2.50;;
8281;SDS011;25606;42.686;23.136;2023-07-29T03:28:36;4.47;;;3.00;;
8281;SDS011;25606;42.686;23.136;2023-07-29T03:31:04;3.10;;;2.80;;
8281;SDS011;25606;42.686;23.136;2023-07-29T03:33:31;3.10;;;2.80;;
8281;SDS011;25606;42.686;23.136;2023-07-29T03:35:58;2.80;;;2.60;;
8281;SDS011;25606;42.686;23.136;2023-07-29T03:38:25;3.07;;;2.57;;
8281;SDS011;25606;42.686;23.136;2023-07-29T03:40:54;3.00;;;2.70;;
8281;SDS011;25606;42.686;23.136;2023-07-29T03:43:21;2.93;;;2.60;;
8281;SDS011;25606;42.686;23.136;2023-07-29T03:45:49;3.47;;;3.00;;
8281;SDS011;25606;42.686;23.136;2023-07-29T03:48:16;3.23;;;2.80;;
8281;SDS011;25606;42.686;23.136;2023-07-29T03:50:43;3.20;;;2.90;;
8281;SDS011;25606;42.686;23.136;2023-07-29T03:53:10;3.20;;;2.90;;
8281;SDS011;25606;42.686;23.136;2023-07-29T03:55:38;3.07;;;2.87;;
8281;SDS011;25606;42.686;23.136;2023-07-29T03:58:06;4.03;;;2.90;;
8281;SDS011;25606;42.686;23.136;2023-07-29T04:00:34;2.60;;;2.40;;
8281;SDS011;25606;42.686;23.136;2023-07-29T04:03:01;3.20;;;3.00;;
8281;SDS011;25606;42.686;23.136;2023-07-29T04:05:28;3.00;;;2.80;;
8281;SDS011;25606;42.686;23.136;2023-07-29T04:07:56;3.20;;;2.90;;
8281;SDS011;25606;42.686;23.136;2023-07-29T04:10:23;3.40;;;3.10;;
8281;SDS011;25606;42.686;23.136;2023-07-29T04:12:50;3.20;;;2.90;;
8281;SDS011;25606;42.686;23.136;2023-07-29T04:15:19;4.37;;;2.90;;
8281;SDS011;25606;42.686;23.136;2023-07-29T04:17:46;3.10;;;2.80;;
8281;SDS011;25606;42.686;23.136;2023-07-29T04:20:14;3.37;;;3.03;;
8281;SDS011;25606;42.686;23.136;2023-07-29T04:22:41;3.27;;;2.97;;
8281;SDS011;25606;42.686;23.136;2023-07-29T04:25:08;3.03;;;2.73;;
8281;SDS011;25606;42.686;23.136;2023-07-29T04:27:35;3.10;;;2.70;;
8281;SDS011;25606;42.686;23.136;2023-07-29T04:30:03;3.77;;;3.33;;
8281;SDS011;25606;42.686;23.136;2023-07-29T04:32:32;3.90;;;2.87;;
8281;SDS011;25606;42.686;23.136;2023-07-29T04:34:59;3.47;;;3.20;;
8281;SDS011;25606;42.686;23.136;2023-07-29T04:37:27;3.83;;;2.73;;
8281;SDS011;25606;42.686;23.136;2023-07-29T04:39:54;3.57;;;3.23;;
8281;SDS011;25606;42.686;23.136;2023-07-29T04:42:21;4.30;;;2.93;;
8281;SDS011;25606;42.686;23.136;2023-07-29T04:44:49;3.87;;;3.53;;
8281;SDS011;25606;42.686;23.136;2023-07-29T04:47:16;2.97;;;2.77;;
8281;SDS011;25606;42.686;23.136;2023-07-29T04:49:45;3.53;;;3.23;;
8281;SDS011;25606;42.686;23.136;2023-07-29T04:52:12;3.63;;;3.33;;
8281;SDS011;25606;42.686;23.136;2023-07-29T04:54:40;3.87;;;2.90;;
8281;SDS011;25606;42.686;23.136;2023-07-29T04:57:07;4.03;;;3.03;;
8281;SDS011;25606;42.686;23.136;2023-07-29T04:59:34;3.27;;;2.97;;
8281;SDS011;25606;42.686;23.136;2023-07-29T05:02:02;3.87;;;3.07;;
8281;SDS011;25606;42.686;23.136;2023-07-29T05:04:29;4.80;;;3.13;;
8281;SDS011;25606;42.686;23.136;2023-07-29T05:06:58;5.93;;;3.47;;
8281;SDS011;25606;42.686;23.136;2023-07-29T05:09:25;4.30;;;2.90;;
8281;SDS011;25606;42.686;23.136;2023-07-29T05:11:52;3.33;;;3.03;;
8281;SDS011;25606;42.686;23.136;2023-07-29T05:14:19;3.53;;;3.23;;
8281;SDS011;25606;42.686;23.136;2023-07-29T05:16:47;4.63;;;3.07;;
8281;SDS011;25606;42.686;23.136;2023-07-29T05:19:14;4.20;;;3.07;;
8281;SDS011;25606;42.686;23.136;2023-07-29T05:21:41;3.10;;;2.80;;
8281;SDS011;25606;42.686;23.136;2023-07-29T05:24:10;3.17;;;2.97;;
8281;SDS011;25606;42.686;23.136;2023-07-29T05:26:38;6.37;;;3.50;;
8281;SDS011;25606;42.686;23.136;2023-07-29T05:29:05;4.37;;;3.33;;
8281;SDS011;25606;42.686;23.136;2023-07-29T05:31:32;3.83;;;3.07;;
8281;SDS011;25606;42.686;23.136;2023-07-29T05:34:00;3.70;;;3.40;;
8281;SDS011;25606;42.686;23.136;2023-07-29T05:36:27;6.67;;;3.43;;
8281;SDS011;25606;42.686;23.136;2023-07-29T05:38:54;7.47;;;3.80;;
8281;SDS011;25606;42.686;23.136;2023-07-29T05:41:23;5.63;;;3.50;;
8281;SDS011;25606;42.686;23.136;2023-07-29T05:43:51;10.37;;;4.20;;
8281;SDS011;25606;42.686;23.136;2023-07-29T05:46:18;4.00;;;3.60;;
8281;SDS011;25606;42.686;23.136;2023-07-29T05:48:45;4.50;;;3.37;;
8281;SDS011;25606;42.686;23.136;2023-07-29T05:51:13;4.20;;;3.83;;
8281;SDS011;25606;42.686;23.136;2023-07-29T05:53:40;7.30;;;4.20;;
8281;SDS011;25606;42.686;23.136;2023-07-29T05:56:07;4.93;;;3.60;;
8281;SDS011;25606;42.686;23.136;2023-07-29T05:58:37;4.00;;;3.47;;
8281;SDS011;25606;42.686;23.136;2023-07-29T06:01:04;5.47;;;3.60;;
8281;SDS011;25606;42.686;23.136;2023-07-29T06:03:31;4.43;;;3.90;;
8281;SDS011;25606;42.686;23.136;2023-07-29T06:05:58;5.37;;;4.03;;
8281;SDS011;25606;42.686;23.136;2023-07-29T06:08:26;7.07;;;3.80;;
8281;SDS011;25606;42.686;23.136;2023-07-29T06:10:54;4.40;;;3.87;;
8281;SDS011;25606;42.686;23.136;2023-07-29T06:13:21;5.33;;;4.03;;
8281;SDS011;25606;42.686;23.136;2023-07-29T06:15:50;4.47;;;4.03;;
8281;SDS011;25606;42.686;23.136;2023-07-29T06:18:17;6.47;;;4.53;;
8281;SDS011;25606;42.686;23.136;2023-07-29T06:20:44;6.63;;;4.13;;
8281;SDS011;25606;42.686;23.136;2023-07-29T06:23:12;5.67;;;3.70;;
8281;SDS011;25606;42.686;23.136;2023-07-29T06:25:39;4.20;;;3.83;;
8281;SDS011;25606;42.686;23.136;2023-07-29T06:28:06;4.27;;;3.83;;
8281;SDS011;25606;42.686;23.136;2023-07-29T06:30:35;5.77;;;3.93;;
8281;SDS011;25606;42.686;23.136;2023-07-29T06:33:04;5.60;;;3.73;;
8281;SDS011;25606;42.686;23.136;2023-07-29T06:35:31;4.37;;;3.87;;
8281;SDS011;25606;42.686;23.136;2023-07-29T06:37:58;8.00;;;4.13;;
8281;SDS011;25606;42.686;23.136;2023-07-29T06:40:25;8.55;;;4.10;;
8281;SDS011;25606;42.686;23.136;2023-07-29T06:42:53;6.45;;;4.30;;
8281;SDS011;25606;42.686;23.136;2023-07-29T06:45:20;7.95;;;4.93;;
8281;SDS011;25606;42.686;23.136;2023-07-29T06:47:47;9.88;;;5.72;;
8281;SDS011;25606;42.686;23.136;2023-07-29T06:50:16;45.40;;;15.23;;
8281;SDS011;25606;42.686;23.136;2023-07-29T06:52:43;30.38;;;18.58;;
8281;SDS011;25606;42.686;23.136;2023-07-29T06:55:11;12.85;;;5.55;;
8281;SDS011;25606;42.686;23.136;2023-07-29T06:57:38;19.80;;;9.77;;
8281;SDS011;25606;42.686;23.136;2023-07-29T07:00:06;24.20;;;13.02;;
8281;SDS011;25606;42.686;23.136;2023-07-29T07:02:34;43.50;;;36.28;;
8281;SDS011;25606;42.686;23.136;2023-07-29T07:05:01;86.93;;;79.85;;
8281;SDS011;25606;42.686;23.136;2023-07-29T07:07:30;120.55;;;110.88;;
8281;SDS011;25606;42.686;23.136;2023-07-29T07:09:58;130.02;;;119.45;;
8281;SDS011;25606;42.686;23.136;2023-07-29T07:12:25;129.32;;;118.95;;
8281;SDS011;25606;42.686;23.136;2023-07-29T07:14:52;192.35;;;176.23;;
8281;SDS011;25606;42.686;23.136;2023-07-29T07:17:19;191.55;;;175.88;;
8281;SDS011;25606;42.686;23.136;2023-07-29T07:19:47;215.05;;;198.63;;
8281;SDS011;25606;42.686;23.136;2023-07-29T07:22:15;234.93;;;215.35;;
8281;SDS011;25606;42.686;23.136;2023-07-29T07:24:44;251.55;;;232.38;;
8281;SDS011;25606;42.686;23.136;2023-07-29T07:27:12;268.88;;;247.75;;
8281;SDS011;25606;42.686;23.136;2023-07-29T07:29:39;269.80;;;249.50;;
8281;SDS011;25606;42.686;23.136;2023-07-29T07:32:06;319.35;;;294.52;;
8281;SDS011;25606;42.686;23.136;2023-07-29T07:34:34;314.95;;;291.10;;
8281;SDS011;25606;42.686;23.136;2023-07-29T07:37:01;302.02;;;279.23;;
8281;SDS011;25606;42.686;23.136;2023-07-29T07:39:29;347.58;;;321.02;;
8281;SDS011;25606;42.686;23.136;2023-07-29T07:41:58;392.70;;;363.13;;
8281;SDS011;25606;42.686;23.136;2023-07-29T07:44:25;447.27;;;410.42;;
8281;SDS011;25606;42.686;23.136;2023-07-29T07:46:52;441.92;;;407.75;;
8281;SDS011;25606;42.686;23.136;2023-07-29T07:49:20;463.77;;;429.52;;
8281;SDS011;25606;42.686;23.136;2023-07-29T07:51:47;458.25;;;425.15;;
8281;SDS011;25606;42.686;23.136;2023-07-29T07:54:15;452.15;;;419.17;;
8281;SDS011;25606;42.686;23.136;2023-07-29T07:56:42;469.02;;;435.00;;
8281;SDS011;25606;42.686;23.136;2023-07-29T07:59:11;484.70;;;451.42;;
8281;SDS011;25606;42.686;23.136;2023-07-29T08:01:38;455.85;;;424.23;;
8281;SDS011;25606;42.686;23.136;2023-07-29T08:04:06;450.67;;;419.35;;
8281;SDS011;25606;42.686;23.136;2023-07-29T08:06:33;455.60;;;424.23;;
8281;SDS011;25606;42.686;23.136;2023-07-29T08:09:01;460.05;;;428.15;;
8281;SDS011;25606;42.686;23.136;2023-07-29T08:11:29;448.13;;;416.77;;
8281;SDS011;25606;42.686;23.136;2023-07-29T08:13:56;431.90;;;401.45;;
8281;SDS011;25606;42.686;23.136;2023-07-29T08:16:25;431.13;;;401.83;;
8281;SDS011;25606;42.686;23.136;2023-07-29T08:18:52;287.95;;;268.55;;
8281;SDS011;25606;42.686;23.136;2023-07-29T08:21:19;238.02;;;221.75;;
8281;SDS011;25606;42.686;23.136;2023-07-29T08:23:47;201.35;;;187.45;;
8281;SDS011;25606;42.686;23.136;2023-07-29T08:26:14;261.92;;;243.05;;
8281;SDS011;25606;42.686;23.136;2023-07-29T08:28:41;276.40;;;256.60;;
8281;SDS011;25606;42.686;23.136;2023-07-29T08:31:09;310.05;;;286.83;;
8281;SDS011;25606;42.686;23.136;2023-07-29T08:33:37;276.70;;;256.77;;
8281;SDS011;25606;42.686;23.136;2023-07-29T08:36:05;284.00;;;263.05;;
8281;SDS011;25606;42.686;23.136;2023-07-29T08:38:32;247.57;;;229.50;;
8281;SDS011;25606;42.686;23.136;2023-07-29T08:41:02;209.80;;;195.23;;
8281;SDS011;25606;42.686;23.136;2023-07-29T08:43:32;184.40;;;171.05;;
8281;SDS011;25606;42.686;23.136;2023-07-29T08:45:59;256.63;;;237.85;;
8281;SDS011;25606;42.686;23.136;2023-07-29T08:48:29;265.25;;;245.38;;
8281;SDS011;25606;42.686;23.136;2023-07-29T08:51:01;308.48;;;285.50;;
8281;SDS011;25606;42.686;23.136;2023-07-29T08:53:29;340.48;;;316.45;;
8281;SDS011;25606;42.686;23.136;2023-07-29T08:55:56;345.33;;;320.58;;
8281;SDS011;25606;42.686;23.136;2023-07-29T08:58:24;227.75;;;211.63;;
8281;SDS011;25606;42.686;23.136;2023-07-29T09:00:51;178.05;;;165.23;;
8281;SDS011;25606;42.686;23.136;2023-07-29T09:03:19;212.07;;;196.48;;
8281;SDS011;25606;42.686;23.136;2023-07-29T09:05:46;215.77;;;200.45;;
8281;SDS011;25606;42.686;23.136;2023-07-29T09:08:15;204.23;;;189.80;;
8281;SDS011;25606;42.686;23.136;2023-07-29T09:10:43;153.40;;;142.38;;
8281;SDS011;25606;42.686;23.136;2023-07-29T09:13:10;180.20;;;166.40;;
8281;SDS011;25606;42.686;23.136;2023-07-29T09:15:36;190.85;;;176.35;;
8281;SDS011;25606;42.686;23.136;2023-07-29T09:18:10;252.50;;;233.05;;
8281;SDS011;25606;42.686;23.136;2023-07-29T09:20:37;220.25;;;203.45;;
8281;SDS011;25606;42.686;23.136;2023-07-29T09:23:06;210.85;;;194.95;;
8281;SDS011;25606;42.686;23.136;2023-07-29T09:25:36;239.80;;;223.07;;
8281;SDS011;25606;42.686;23.136;2023-07-29T09:28:07;295.10;;;273.45;;
8281;SDS011;25606;42.686;23.136;2023-07-29T09:30:35;277.45;;;257.52;;
8281;SDS011;25606;42.686;23.136;2023-07-29T09:33:02;246.40;;;228.52;;
8281;SDS011;25606;42.686;23.136;2023-07-29T09:35:30;271.10;;;252.45;;
8281;SDS011;25606;42.686;23.136;2023-07-29T09:37:57;268.63;;;249.40;;
8281;SDS011;25606;42.686;23.136;2023-07-29T09:40:25;332.50;;;308.60;;
8281;SDS011;25606;42.686;23.136;2023-07-29T09:42:54;336.42;;;313.10;;
8281;SDS011;25606;42.686;23.136;2023-07-29T09:45:22;242.05;;;225.68;;
8281;SDS011;25606;42.686;23.136;2023-07-29T09:47:49;323.95;;;301.17;;
8281;SDS011;25606;42.686;23.136;2023-07-29T09:50:17;359.65;;;333.30;;
8281;SDS011;25606;42.686;23.136;2023-07-29T09:52:44;394.95;;;366.80;;
8281;SDS011;25606;42.686;23.136;2023-07-29T09:55:13;426.38;;;396.80;;
8281;SDS011;25606;42.686;23.136;2023-07-29T09:57:44;442.95;;;412.23;;
8281;SDS011;25606;42.686;23.136;2023-07-29T10:00:13;441.70;;;410.98;;
8281;SDS011;25606;42.686;23.136;2023-07-29T10:02:41;472.13;;;439.27;;
8281;SDS011;25606;42.686;23.136;2023-07-29T10:05:09;460.52;;;428.73;;
8281;SDS011;25606;42.686;23.136;2023-07-29T10:07:37;445.98;;;415.88;;
8281;SDS011;25606;42.686;23.136;2023-07-29T10:10:05;463.55;;;432.30;;
8281;SDS011;25606;42.686;23.136;2023-07-29T10:12:33;426.30;;;396.42;;
8281;SDS011;25606;42.686;23.136;2023-07-29T10:15:02;437.33;;;406.65;;
8281;SDS011;25606;42.686;23.136;2023-07-29T10:17:31;462.08;;;429.83;;
8281;SDS011;25606;42.686;23.136;2023-07-29T10:20:00;478.85;;;445.23;;
8281;SDS011;25606;42.686;23.136;2023-07-29T10:22:28;448.73;;;418.67;;
8281;SDS011;25606;42.686;23.136;2023-07-29T10:24:56;427.48;;;398.30;;
8281;SDS011;25606;42.686;23.136;2023-07-29T10:27:26;458.85;;;426.83;;
8281;SDS011;25606;42.686;23.136;2023-07-29T10:29:54;474.40;;;441.95;;
8281;SDS011;25606;42.686;23.136;2023-07-29T10:32:23;469.42;;;437.02;;
8281;SDS011;25606;42.686;23.136;2023-07-29T10:34:53;455.48;;;423.27;;
8281;SDS011;25606;42.686;23.136;2023-07-29T10:37:20;415.08;;;386.77;;
8281;SDS011;25606;42.686;23.136;2023-07-29T10:39:52;444.20;;;413.33;;
8281;SDS011;25606;42.686;23.136;2023-07-29T10:42:20;458.83;;;427.50;;
8281;SDS011;25606;42.686;23.136;2023-07-29T10:44:48;451.17;;;420.90;;
8281;SDS011;25606;42.686;23.136;2023-07-29T10:47:17;409.63;;;381.30;;
8281;SDS011;25606;42.686;23.136;2023-07-29T10:49:45;398.73;;;372.05;;
8281;SDS011;25606;42.686;23.136;2023-07-29T10:52:14;354.08;;;330.38;;
8281;SDS011;25606;42.686;23.136;2023-07-29T10:54:42;316.70;;;295.15;;
8281;SDS011;25606;42.686;23.136;2023-07-29T10:57:12;387.60;;;361.80;;
8281;SDS011;25606;42.686;23.136;2023-07-29T10:59:40;382.83;;;357.08;;
8281;SDS011;25606;42.686;23.136;2023-07-29T11:02:15;342.55;;;319.27;;
8281;SDS011;25606;42.686;23.136;2023-07-29T11:04:47;326.30;;;304.52;;
8281;SDS011;25606;42.686;23.136;2023-07-29T11:07:22;337.83;;;314.63;;
8281;SDS011;25606;42.686;23.136;2023-07-29T11:09:58;339.17;;;316.67;;
8281;SDS011;25606;42.686;23.136;2023-07-29T11:15:12;366.42;;;340.83;;
8281;SDS011;25606;42.686;23.136;2023-07-29T11:17:39;401.45;;;374.80;;
8281;SDS011;25606;42.686;23.136;2023-07-29T11:20:07;406.17;;;378.73;;
8281;SDS011;25606;42.686;23.136;2023-07-29T11:22:36;407.17;;;379.65;;
8281;SDS011;25606;42.686;23.136;2023-07-29T11:25:04;401.08;;;373.85;;
8281;SDS011;25606;42.686;23.136;2023-07-29T11:27:32;396.30;;;369.65;;
8281;SDS011;25606;42.686;23.136;2023-07-29T11:29:59;394.52;;;367.42;;
8281;SDS011;25606;42.686;23.136;2023-07-29T11:32:27;408.25;;;380.42;;
8281;SDS011;25606;42.686;23.136;2023-07-29T11:34:54;403.85;;;376.00;;
8281;SDS011;25606;42.686;23.136;2023-07-29T11:37:22;424.42;;;395.17;;
8281;SDS011;25606;42.686;23.136;2023-07-29T11:39:50;431.45;;;402.42;;
8281;SDS011;25606;42.686;23.136;2023-07-29T11:42:18;405.58;;;378.02;;
8281;SDS011;25606;42.686;23.136;2023-07-29T11:44:45;430.52;;;401.02;;
8281;SDS011;25606;42.686;23.136;2023-07-29T11:47:13;442.50;;;412.92;;
8281;SDS011;25606;42.686;23.136;2023-07-29T11:49:40;445.08;;;414.38;;
8281;SDS011;25606;42.686;23.136;2023-07-29T11:52:08;468.63;;;437.05;;
8281;SDS011;25606;42.686;23.136;2023-07-29T11:54:36;479.48;;;446.98;;
8281;SDS011;25606;42.686;23.136;2023-07-29T11:57:05;487.63;;;454.27;;
8281;SDS011;25606;42.686;23.136;2023-07-29T11:59:33;484.58;;;452.25;;
8281;SDS011;25606;42.686;23.136;2023-07-29T12:02:01;430.63;;;401.58;;
8281;SDS011;25606;42.686;23.136;2023-07-29T12:04:28;465.05;;;433.35;;
8281;SDS011;25606;42.686;23.136;2023-07-29T12:06:56;498.10;;;465.17;;
8281;SDS011;25606;42.686;23.136;2023-07-29T12:09:24;533.28;;;498.17;;
8281;SDS011;25606;42.686;23.136;2023-07-29T12:11:53;488.27;;;455.83;;
8281;SDS011;25606;42.686;23.136;2023-07-29T12:14:22;506.05;;;471.80;;
8281;SDS011;25606;42.686;23.136;2023-07-29T12:16:52;522.40;;;486.92;;
8281;SDS011;25606;42.686;23.136;2023-07-29T12:19:19;511.15;;;476.92;;
8281;SDS011;25606;42.686;23.136;2023-07-29T12:21:47;483.15;;;451.13;;
8281;SDS011;25606;42.686;23.136;2023-07-29T12:24:14;500.73;;;467.50;;
8281;SDS011;25606;42.686;23.136;2023-07-29T12:26:42;447.35;;;418.38;;
8281;SDS011;25606;42.686;23.136;2023-07-29T12:29:12;426.33;;;398.90;;
8281;SDS011;25606;42.686;23.136;2023-07-29T12:31:41;429.30;;;400.83;;
8281;SDS011;25606;42.686;23.136;2023-07-29T12:34:08;442.25;;;412.17;;
8281;SDS011;25606;42.686;23.136;2023-07-29T12:36:41;501.83;;;468.33;;
8281;SDS011;25606;42.686;23.136;2023-07-29T12:39:15;502.95;;;469.83;;
8281;SDS011;25606;42.686;23.136;2023-07-29T12:41:42;534.67;;;499.98;;
8281;SDS011;25606;42.686;23.136;2023-07-29T12:44:10;556.53;;;519.92;;
8281;SDS011;25606;42.686;23.136;2023-07-29T12:46:37;566.70;;;529.95;;
8281;SDS011;25606;42.686;23.136;2023-07-29T12:49:05;567.75;;;531.28;;
8281;SDS011;25606;42.686;23.136;2023-07-29T12:51:33;548.38;;;512.88;;
8281;SDS011;25606;42.686;23.136;2023-07-29T12:54:01;533.95;;;499.73;;
8281;SDS011;25606;42.686;23.136;2023-07-29T12:56:29;515.60;;;481.65;;
8281;SDS011;25606;42.686;23.136;2023-07-29T12:58:57;554.20;;;518.05;;
8281;SDS011;25606;42.686;23.136;2023-07-29T13:01:24;544.85;;;509.13;;
8281;SDS011;25606;42.686;23.136;2023-07-29T13:03:52;526.10;;;491.42;;
8281;SDS011;25606;42.686;23.136;2023-07-29T13:06:20;557.28;;;520.90;;
8281;SDS011;25606;42.686;23.136;2023-07-29T13:08:48;549.30;;;513.30;;
8281;SDS011;25606;42.686;23.136;2023-07-29T13:11:15;530.67;;;495.83;;
8281;SDS011;25606;42.686;23.136;2023-07-29T13:13:43;466.33;;;435.27;;
8281;SDS011;25606;42.686;23.136;2023-07-29T13:16:10;487.73;;;455.08;;
8281;SDS011;25606;42.686;23.136;2023-07-29T13:18:38;515.17;;;480.65;;
8281;SDS011;25606;42.686;23.136;2023-07-29T13:21:05;531.00;;;495.50;;
8281;SDS011;25606;42.686;23.136;2023-07-29T13:23:34;557.97;;;521.55;;
8281;SDS011;25606;42.686;23.136;2023-07-29T13:26:01;587.53;;;548.45;;
8281;SDS011;25606;42.686;23.136;2023-07-29T13:28:29;557.50;;;521.15;;
8281;SDS011;25606;42.686;23.136;2023-07-29T13:30:56;584.35;;;545.92;;
8281;SDS011;25606;42.686;23.136;2023-07-29T13:33:23;572.67;;;535.30;;
8281;SDS011;25606;42.686;23.136;2023-07-29T13:35:51;509.95;;;475.20;;
8281;SDS011;25606;42.686;23.136;2023-07-29T13:38:18;587.75;;;548.03;;
8281;SDS011;25606;42.686;23.136;2023-07-29T13:40:47;560.67;;;524.67;;
8281;SDS011;25606;42.686;23.136;2023-07-29T13:43:16;513.28;;;478.88;;
8281;SDS011;25606;42.686;23.136;2023-07-29T13:45:44;551.30;;;515.40;;
8281;SDS011;25606;42.686;23.136;2023-07-29T13:48:13;573.90;;;535.92;;
8281;SDS011;25606;42.686;23.136;2023-07-29T13:50:41;522.30;;;489.42;;
8281;SDS011;25606;42.686;23.136;2023-07-29T13:53:09;529.33;;;495.35;;
8281;SDS011;25606;42.686;23.136;2023-07-29T13:55:36;508.17;;;475.63;;
8281;SDS011;25606;42.686;23.136;2023-07-29T13:58:05;503.95;;;471.58;;
8281;SDS011;25606;42.686;23.136;2023-07-29T14:00:32;514.03;;;480.83;;
8281;SDS011;25606;42.686;23.136;2023-07-29T14:02:59;517.13;;;483.80;;
8281;SDS011;25606;42.686;23.136;2023-07-29T14:05:27;564.55;;;529.03;;
8281;SDS011;25606;42.686;23.136;2023-07-29T14:07:54;582.55;;;546.33;;
8281;SDS011;25606;42.686;23.136;2023-07-29T14:10:21;564.00;;;527.97;;
8281;SDS011;25606;42.686;23.136;2023-07-29T14:12:48;599.25;;;561.33;;
8281;SDS011;25606;42.686;23.136;2023-07-29T14:15:17;584.70;;;546.53;;
8281;SDS011;25606;42.686;23.136;2023-07-29T14:17:45;609.50;;;571.13;;
8281;SDS011;25606;42.686;23.136;2023-07-29T14:20:12;589.03;;;551.97;;
8281;SDS011;25606;42.686;23.136;2023-07-29T14:22:40;538.83;;;504.40;;
8281;SDS011;25606;42.686;23.136;2023-07-29T14:25:07;504.23;;;471.88;;
8281;SDS011;25606;42.686;23.136;2023-07-29T14:27:34;526.05;;;491.58;;